createdAt,value
2022-08-17T00:00:00.235Z,22
2022-08-17T00:05:00.229Z,22
2022-08-17T00:10:00.211Z,21.9
2022-08-17T00:15:00.211Z,21.8
2022-08-17T00:20:00.294Z,21.8
2022-08-17T00:25:00.184Z,21.8
2022-08-17T00:30:00.265Z,21.7
2022-08-17T00:35:00.209Z,21.7
2022-08-17T00:40:00.360Z,21.6
2022-08-17T00:45:00.231Z,21.6
2022-08-17T00:50:00.273Z,21.6
2022-08-17T00:55:00.211Z,21.5
2022-08-17T01:00:02.929Z,21.5
2022-08-17T01:05:00.242Z,21.4
2022-08-17T01:10:00.311Z,21.4
2022-08-17T01:15:00.259Z,21.4
2022-08-17T01:20:00.281Z,21.4
2022-08-17T01:25:00.151Z,21.4
2022-08-17T01:30:00.317Z,21.3
2022-08-17T01:35:00.202Z,21.3
2022-08-17T01:40:00.417Z,21.2
2022-08-17T01:45:00.156Z,21.2
2022-08-17T01:50:00.312Z,21.1
2022-08-17T01:55:00.249Z,21
2022-08-17T02:00:00.231Z,21
2022-08-17T02:05:00.214Z,21
2022-08-17T02:10:00.256Z,20.9
2022-08-17T02:15:00.124Z,20.9
2022-08-17T02:20:00.236Z,20.8
2022-08-17T02:25:02.415Z,20.8
2022-08-17T02:30:00.329Z,20.7
2022-08-17T02:35:00.132Z,20.6
2022-08-17T02:40:00.466Z,20.6
2022-08-17T02:45:00.268Z,20.6
2022-08-17T02:50:00.260Z,20.5
2022-08-17T02:55:00.132Z,20.5
2022-08-17T03:00:00.296Z,20.4
2022-08-17T03:05:00.229Z,20.4
2022-08-17T03:10:00.305Z,20.4
2022-08-17T03:15:00.221Z,20.3
2022-08-17T03:20:00.310Z,20.2
2022-08-17T03:25:00.279Z,20.2
2022-08-17T03:30:00.311Z,20.2
2022-08-17T03:35:00.266Z,20.1
2022-08-17T03:40:00.400Z,20.1
2022-08-17T03:45:00.244Z,20
2022-08-17T03:50:00.219Z,20
2022-08-17T03:55:00.265Z,19.9
2022-08-17T04:00:00.291Z,19.9
2022-08-17T04:05:00.245Z,19.8
2022-08-17T04:10:00.299Z,19.8
2022-08-17T04:15:00.221Z,19.8
2022-08-17T04:20:00.319Z,19.8
2022-08-17T04:25:00.302Z,19.8
2022-08-17T04:30:00.334Z,19.7
2022-08-17T04:35:00.332Z,19.7
2022-08-17T04:40:03.963Z,19.6
2022-08-17T04:45:00.248Z,19.6
2022-08-17T04:50:00.291Z,19.6
2022-08-17T04:55:00.294Z,19.6
2022-08-17T05:00:00.312Z,19.5
2022-08-17T05:05:00.288Z,19.5
2022-08-17T05:10:00.401Z,19.5
2022-08-17T05:15:00.274Z,19.5
2022-08-17T05:20:00.286Z,19.5
2022-08-17T05:25:02.663Z,19.5
2022-08-17T05:30:00.314Z,19.6
2022-08-17T05:35:00.553Z,19.6
2022-08-17T05:40:00.392Z,19.6
2022-08-17T05:45:00.240Z,19.7
2022-08-17T05:50:00.268Z,19.7
2022-08-17T05:55:00.219Z,19.8
2022-08-17T06:00:06.774Z,19.8
2022-08-17T06:05:00.288Z,19.8
2022-08-17T06:10:00.229Z,19.8
2022-08-17T06:15:00.192Z,19.9
2022-08-17T06:20:00.216Z,19.9
2022-08-17T06:25:00.267Z,19.9
2022-08-17T06:30:00.260Z,20
2022-08-17T06:35:01.425Z,20.1
2022-08-17T06:40:00.421Z,20.1
2022-08-17T06:45:00.252Z,20.2
2022-08-17T06:50:00.267Z,20.2
2022-08-17T06:55:00.263Z,20.3
2022-08-17T07:00:00.268Z,20.4
2022-08-17T07:05:00.313Z,20.4
2022-08-17T07:10:00.271Z,20.6
2022-08-17T07:15:00.292Z,20.6
2022-08-17T07:20:00.306Z,20.8
2022-08-17T07:25:00.293Z,20.9
2022-08-17T07:30:00.273Z,21
2022-08-17T07:35:00.310Z,21
2022-08-17T07:40:16.040Z,21.2
2022-08-17T07:45:00.320Z,21.3
2022-08-17T07:50:00.349Z,21.4
2022-08-17T07:55:00.258Z,21.5
2022-08-17T08:00:01.124Z,21.6
2022-08-17T08:05:01.640Z,21.7
2022-08-17T08:10:00.229Z,21.8
2022-08-17T08:15:00.620Z,22
2022-08-17T08:20:00.233Z,22.1
2022-08-17T08:25:00.261Z,22.2
2022-08-17T08:30:00.290Z,22.4
2022-08-17T08:35:02.910Z,22.6
2022-08-17T08:40:00.350Z,22.8
2022-08-17T08:45:04.202Z,22.9
2022-08-17T08:50:05.214Z,23.1
2022-08-17T08:55:00.289Z,23.3
2022-08-17T09:00:00.335Z,23.4
2022-08-17T09:05:14.646Z,23.6
2022-08-17T09:10:00.287Z,23.7
2022-08-17T09:15:00.298Z,23.8
2022-08-17T09:20:00.320Z,23.9
2022-08-17T09:25:00.278Z,24.1
2022-08-17T09:30:00.319Z,24.2
2022-08-17T09:35:00.326Z,24.3
2022-08-17T09:40:00.465Z,24.5
2022-08-17T09:45:00.236Z,24.6
2022-08-17T09:50:00.300Z,24.8
2022-08-17T09:55:00.389Z,24.9
2022-08-17T10:00:00.356Z,25
2022-08-17T10:05:00.286Z,25
2022-08-17T10:10:00.300Z,25.1
2022-08-17T10:15:07.755Z,25.2
2022-08-17T10:20:00.248Z,25.2
2022-08-17T10:25:21.011Z,25.3
2022-08-17T10:30:00.328Z,25.3
2022-08-17T10:35:00.286Z,25.4
2022-08-17T10:40:00.475Z,25.4
2022-08-17T10:45:00.340Z,25.4
2022-08-17T10:50:00.314Z,25.4
2022-08-17T10:55:00.335Z,25.4
2022-08-17T11:00:00.381Z,25.4
2022-08-17T11:05:00.278Z,25.4
2022-08-17T11:10:00.273Z,25.4
2022-08-17T11:15:00.308Z,25.4
2022-08-17T11:20:00.260Z,25.4
2022-08-17T11:25:00.235Z,25.4
2022-08-17T11:30:01.768Z,25.4
2022-08-17T11:35:00.196Z,25.4
2022-08-17T11:40:00.407Z,25.3
2022-08-17T11:45:00.217Z,25.2
2022-08-17T11:50:00.237Z,25.2
2022-08-17T11:55:12.408Z,25.1
2022-08-17T12:00:00.326Z,25.1
2022-08-17T12:05:00.179Z,25
2022-08-17T12:10:00.236Z,25
2022-08-17T12:15:11.510Z,25
2022-08-17T12:20:00.248Z,25
2022-08-17T12:25:00.245Z,25.1
2022-08-17T12:30:00.283Z,25.1
2022-08-17T12:35:00.206Z,25.1
2022-08-17T12:40:00.390Z,25.1
2022-08-17T12:45:00.174Z,25.1
2022-08-17T12:50:00.290Z,25.1
2022-08-17T12:55:00.270Z,25.1
2022-08-17T13:00:00.262Z,25.1
2022-08-17T13:05:00.280Z,25.1
2022-08-17T13:10:00.295Z,25.2
2022-08-17T13:15:00.277Z,25.3
2022-08-17T13:20:00.333Z,25.4
2022-08-17T13:25:00.233Z,25.4
2022-08-17T13:30:00.294Z,25.5
2022-08-17T13:35:15.557Z,25.5
2022-08-17T13:40:00.482Z,25.5
2022-08-17T13:45:00.240Z,25.6
2022-08-17T13:50:00.312Z,25.7
2022-08-17T13:55:00.269Z,25.8
2022-08-17T14:00:00.321Z,26
2022-08-17T14:05:00.291Z,26.2
2022-08-17T14:10:00.273Z,26.2
2022-08-17T14:15:00.259Z,26.3
2022-08-17T14:20:00.280Z,26.4
2022-08-17T14:25:00.266Z,26.4
2022-08-17T14:30:00.437Z,26.5
2022-08-17T14:35:00.285Z,26.6
2022-08-17T14:40:00.441Z,26.6
2022-08-17T14:45:00.308Z,26.6
2022-08-17T14:50:00.241Z,26.5
2022-08-17T14:55:00.256Z,26.4
2022-08-17T15:00:00.297Z,26.4
2022-08-17T15:05:00.298Z,26.4
2022-08-17T15:10:00.743Z,26.3
2022-08-17T15:15:00.301Z,26.3
2022-08-17T15:20:00.293Z,26.3
2022-08-17T15:25:00.264Z,26.3
2022-08-17T15:30:00.309Z,26.3
2022-08-17T15:35:00.318Z,26.3
2022-08-17T15:40:00.490Z,26.3
2022-08-17T15:45:00.290Z,26.3
2022-08-17T15:50:00.597Z,26.2
2022-08-17T15:55:00.199Z,26.2
2022-08-17T16:00:00.434Z,26.2
2022-08-17T16:05:00.394Z,26.2
2022-08-17T16:10:00.335Z,26.2
2022-08-17T16:15:00.255Z,26.3
2022-08-17T16:20:00.280Z,26.3
2022-08-17T16:25:00.303Z,26.3
2022-08-17T16:30:00.312Z,26.4
2022-08-17T16:35:00.315Z,26.4
2022-08-17T16:40:00.483Z,26.5
2022-08-17T16:45:00.342Z,26.5
2022-08-17T16:50:00.306Z,26.5
2022-08-17T16:55:00.298Z,26.4
2022-08-17T17:00:00.261Z,26.3
2022-08-17T17:05:00.208Z,26.2
2022-08-17T17:10:00.294Z,26.1
2022-08-17T17:15:00.227Z,26
2022-08-17T17:20:00.270Z,25.8
2022-08-17T17:25:00.206Z,25.8
2022-08-17T17:30:00.270Z,25.6
2022-08-17T17:35:00.291Z,25.5
2022-08-17T17:40:00.347Z,25.4
2022-08-17T17:45:00.233Z,25.4
2022-08-17T17:50:00.267Z,25.3
2022-08-17T17:55:00.259Z,25.2
2022-08-17T18:00:00.293Z,25.1
2022-08-17T18:05:00.188Z,25
2022-08-17T18:10:01.490Z,24.9
2022-08-17T18:15:00.233Z,24.8
2022-08-17T18:20:00.542Z,24.8
2022-08-17T18:25:00.231Z,24.7
2022-08-17T18:30:00.313Z,24.6
2022-08-17T18:35:00.281Z,24.6
2022-08-17T18:40:00.385Z,24.5
2022-08-17T18:45:00.194Z,24.4
2022-08-17T18:50:00.269Z,24.4
2022-08-17T18:55:00.266Z,24.2
2022-08-17T19:00:00.306Z,24.2
2022-08-17T19:05:00.270Z,24.1
2022-08-17T19:10:00.338Z,24.1
2022-08-17T19:15:00.321Z,24
2022-08-17T19:20:00.333Z,24
2022-08-17T19:25:02.958Z,23.9
2022-08-17T19:30:04.014Z,23.9
2022-08-17T19:35:00.245Z,23.8
2022-08-17T19:40:00.371Z,23.8
2022-08-17T19:45:00.293Z,23.6
2022-08-17T19:50:00.309Z,23.6
2022-08-17T19:55:00.274Z,23.5
2022-08-17T20:00:00.276Z,23.5
2022-08-17T20:05:00.273Z,23.4
2022-08-17T20:10:00.278Z,23.4
2022-08-17T20:15:00.253Z,23.3
2022-08-17T20:20:00.244Z,23.2
2022-08-17T20:25:00.233Z,23.1
2022-08-17T20:30:00.292Z,23.1
2022-08-17T20:35:00.281Z,23
2022-08-17T20:40:00.526Z,23
2022-08-17T20:45:00.180Z,22.9
2022-08-17T20:50:00.261Z,22.8
2022-08-17T20:55:00.302Z,22.8
2022-08-17T21:00:00.292Z,22.7
2022-08-17T21:05:00.237Z,22.6
2022-08-17T21:10:00.309Z,22.5
2022-08-17T21:15:00.178Z,22.5
2022-08-17T21:20:11.782Z,22.4
2022-08-17T21:25:00.149Z,22.3
2022-08-17T21:30:00.322Z,22.2
2022-08-17T21:35:00.148Z,22.2
2022-08-17T21:40:00.415Z,22.2
2022-08-17T21:45:00.181Z,22.1
2022-08-17T21:50:00.214Z,22
2022-08-17T21:55:00.268Z,22
2022-08-17T22:00:00.306Z,21.9
2022-08-17T22:05:00.230Z,21.8
2022-08-17T22:10:00.221Z,21.8
2022-08-17T22:15:00.164Z,21.8
2022-08-17T22:20:00.299Z,21.7
2022-08-17T22:25:00.158Z,21.6
2022-08-17T22:30:00.312Z,21.6
2022-08-17T22:35:00.175Z,21.6
2022-08-17T22:40:00.397Z,21.5
2022-08-17T22:45:00.233Z,21.5
2022-08-17T22:50:00.268Z,21.4
2022-08-17T22:55:00.159Z,21.4
2022-08-17T23:00:00.247Z,21.4
2022-08-17T23:05:00.140Z,21.3
2022-08-17T23:10:00.268Z,21.2
2022-08-17T23:15:00.145Z,21.2
2022-08-17T23:20:00.217Z,21.1
2022-08-17T23:25:00.138Z,21
2022-08-17T23:30:00.232Z,21
2022-08-17T23:35:00.136Z,21
2022-08-17T23:40:00.458Z,20.9
2022-08-17T23:45:00.250Z,20.8
2022-08-17T23:50:01.624Z,20.8
2022-08-17T23:55:00.207Z,20.7
